createdAt,value
2018-09-18T00:01:09.793Z,100485.33
2018-09-18T00:03:38.111Z,100486.96
2018-09-18T00:06:07.137Z,100492.15
2018-09-18T00:08:35.443Z,100483.44
2018-09-18T00:11:03.739Z,100479.95
2018-09-18T00:13:32.025Z,100478.81
2018-09-18T00:16:00.185Z,100479.95
2018-09-18T00:18:28.346Z,100477.98
2018-09-18T00:20:56.563Z,100482.56
2018-09-18T00:23:24.937Z,100481.69
2018-09-18T00:25:53.143Z,100487.14
2018-09-18T00:28:21.337Z,100480.81
2018-09-18T00:30:49.764Z,100480.06
2018-09-18T00:33:17.927Z,100475.17
2018-09-18T00:35:46.063Z,100471.35
2018-09-18T00:38:14.452Z,100471.35
2018-09-18T00:40:42.610Z,100466.17
2018-09-18T00:43:10.954Z,100472.15
2018-09-18T00:45:39.303Z,100464.98
2018-09-18T00:48:07.675Z,100471.41
2018-09-18T00:50:35.810Z,100474.34
2018-09-18T00:53:03.953Z,100466.35
2018-09-18T00:55:32.263Z,100468.84
2018-09-18T00:58:00.448Z,100469.59
2018-09-18T01:00:28.755Z,100461.64
2018-09-18T01:02:56.993Z,100459.95
2018-09-18T01:05:25.477Z,100459.95
2018-09-18T01:07:53.738Z,100454.91
2018-09-18T01:10:21.976Z,100459.34
2018-09-18T01:12:50.290Z,100458.52
2018-09-18T01:15:18.651Z,100455.87
2018-09-18T01:17:46.776Z,100462.69
2018-09-18T01:20:15.146Z,100456.84
2018-09-18T01:22:43.923Z,100451.09
2018-09-18T01:25:12.081Z,100448.62
2018-09-18T01:27:40.286Z,100450.20
2018-09-18T01:30:08.554Z,100458.11
2018-09-18T01:32:36.773Z,100455.17
2018-09-18T01:35:05.197Z,100459.56
2018-09-18T01:37:33.300Z,100457.45
2018-09-18T01:40:01.622Z,100455.27
2018-09-18T01:42:29.791Z,100456.48
2018-09-18T01:44:58.768Z,100452.84
2018-09-18T01:47:26.950Z,100449.77
2018-09-18T01:49:55.124Z,100458.25
2018-09-18T01:52:23.484Z,100450.23
2018-09-18T01:54:51.963Z,100454.55
2018-09-18T01:57:20.205Z,100454.75
2018-09-18T01:59:49.291Z,100449.35
2018-09-18T02:02:17.465Z,100452.03
2018-09-18T02:04:45.565Z,100450.36
2018-09-18T02:07:13.725Z,100456.69
2018-09-18T02:09:42.025Z,100449.36
2018-09-18T02:12:10.223Z,100454.03
2018-09-18T02:14:38.519Z,100451.62
2018-09-18T02:17:06.697Z,100444.28
2018-09-18T02:19:34.937Z,100447.80
2018-09-18T02:22:03.194Z,100447.49
2018-09-18T02:24:31.485Z,100447.70
2018-09-18T02:26:59.675Z,100441.42
2018-09-18T02:29:27.911Z,100446.56
2018-09-18T02:31:56.195Z,100441.24
2018-09-18T02:34:24.614Z,100440.36
2018-09-18T02:36:52.956Z,100438.88
2018-09-18T02:39:21.275Z,100444.71
2018-09-18T02:41:49.521Z,100439.27
2018-09-18T02:44:17.614Z,100442.17
2018-09-18T02:46:46.124Z,100441.72
2018-09-18T02:49:14.283Z,100437.20
2018-09-18T02:51:42.378Z,100436.73
2018-09-18T02:54:10.505Z,100434.25
2018-09-18T02:56:39.030Z,100432.89
2018-09-18T02:59:07.216Z,100429.42
2018-09-18T03:01:35.598Z,100433.33
2018-09-18T03:04:03.797Z,100435.01
2018-09-18T03:06:32.003Z,100430.53
2018-09-18T03:09:00.188Z,100430.26
2018-09-18T03:11:28.716Z,100433.06
2018-09-18T03:13:56.764Z,100433.55
2018-09-18T03:16:25.110Z,100428.28
2018-09-18T03:18:53.262Z,100433.77
2018-09-18T03:21:21.562Z,100436.80
2018-09-18T03:23:49.778Z,100441.42
2018-09-18T03:26:18.110Z,100443.62
2018-09-18T03:28:46.344Z,100441.47
2018-09-18T03:31:14.423Z,100437.56
2018-09-18T03:33:42.663Z,100440.14
2018-09-18T03:36:11.155Z,100434.69
2018-09-18T03:38:39.293Z,100434.53
2018-09-18T03:41:08.597Z,100434.34
2018-09-18T03:43:36.726Z,100439.00
2018-09-18T03:46:05.104Z,100430.83
2018-09-18T03:48:33.333Z,100423.67
2018-09-18T03:51:01.697Z,100420.04
2018-09-18T03:53:29.836Z,100418.41
2018-09-18T03:55:58.057Z,100419.44
2018-09-18T03:58:26.336Z,100422.42
2018-09-18T04:00:54.571Z,100419.97
2018-09-18T04:03:22.711Z,100419.66
2018-09-18T04:05:51.018Z,100419.92
2018-09-18T04:08:19.135Z,100418.52
2018-09-18T04:10:48.003Z,100421.70
2018-09-18T04:13:16.274Z,100417.11
2018-09-18T04:15:44.383Z,100417.66
2018-09-18T04:18:15.539Z,100413.91
2018-09-18T04:20:43.713Z,100416.55
2018-09-18T04:23:11.813Z,100412.16
2018-09-18T04:25:40.086Z,100418.35
2018-09-18T04:28:08.417Z,100422.48
2018-09-18T04:30:36.535Z,100422.44
2018-09-18T04:33:04.664Z,100424.06
2018-09-18T04:35:32.857Z,100426.26
2018-09-18T04:38:01.125Z,100427.58
2018-09-18T04:40:29.298Z,100427.58
2018-09-18T04:42:57.511Z,100419.70
2018-09-18T04:45:25.630Z,100428.15
2018-09-18T04:47:53.818Z,100428.77
2018-09-18T04:50:22.051Z,100421.11
2018-09-18T04:52:50.240Z,100426.00
2018-09-18T04:55:18.412Z,100421.56
2018-09-18T04:57:46.514Z,100421.34
2018-09-18T05:00:15.258Z,100422.80
2018-09-18T05:02:43.412Z,100423.48
2018-09-18T05:05:11.664Z,100415.84
2018-09-18T05:07:39.838Z,100416.48
2018-09-18T05:10:08.110Z,100416.14
2018-09-18T05:12:36.406Z,100417.28
2018-09-18T05:15:04.652Z,100419.28
2018-09-18T05:17:32.963Z,100424.57
2018-09-18T05:20:01.074Z,100414.26
2018-09-18T05:22:29.478Z,100420.04
2018-09-18T05:24:57.624Z,100414.79
2018-09-18T05:27:26.035Z,100420.87
2018-09-18T05:29:54.178Z,100417.37
2018-09-18T05:32:22.705Z,100420.98
2018-09-18T05:34:50.975Z,100420.92
2018-09-18T05:37:19.379Z,100429.76
2018-09-18T05:39:47.689Z,100429.44
2018-09-18T05:42:15.993Z,100427.30
2018-09-18T05:44:44.153Z,100430.00
2018-09-18T05:47:12.763Z,100426.54
2018-09-18T05:49:41.312Z,100427.64
2018-09-18T05:52:09.683Z,100431.50
2018-09-18T05:54:38.035Z,100429.63
2018-09-18T05:57:06.370Z,100430.71
2018-09-18T05:59:34.671Z,100429.08
2018-09-18T06:02:02.835Z,100424.75
2018-09-18T06:04:31.093Z,100429.73
2018-09-18T06:06:59.335Z,100437.64
2018-09-18T06:09:27.579Z,100430.81
2018-09-18T06:11:55.779Z,100431.88
2018-09-18T06:14:23.983Z,100425.41
2018-09-18T06:16:52.367Z,100424.63
2018-09-18T06:19:21.267Z,100435.03
2018-09-18T06:21:49.449Z,100436.38
2018-09-18T06:24:24.265Z,100436.68
2018-09-18T06:26:52.493Z,100435.84
2018-09-18T06:29:20.849Z,100427.92
2018-09-18T06:31:48.976Z,100431.48
2018-09-18T06:34:17.151Z,100433.41
2018-09-18T06:36:45.403Z,100432.85
2018-09-18T06:39:13.678Z,100424.08
2018-09-18T06:41:42.019Z,100433.66
2018-09-18T06:44:10.123Z,100428.45
2018-09-18T06:46:38.375Z,100435.28
2018-09-18T06:49:06.617Z,100427.63
2018-09-18T06:51:34.753Z,100431.98
2018-09-18T06:54:02.870Z,100429.54
2018-09-18T06:56:31.063Z,100436.66
2018-09-18T06:58:59.436Z,100428.98
2018-09-18T07:01:27.549Z,100435.53
2018-09-18T07:03:55.797Z,100431.38
2018-09-18T07:06:23.981Z,100435.75
2018-09-18T07:08:52.265Z,100439.01
2018-09-18T07:14:14.165Z,100442.80
2018-09-18T07:16:42.449Z,100438.09
2018-09-18T07:19:10.665Z,100433.63
2018-09-18T07:21:38.838Z,100432.20
2018-09-18T07:24:07.030Z,100439.53
2018-09-18T07:26:35.249Z,100432.03
2018-09-18T07:29:03.494Z,100428.47
2018-09-18T07:31:31.594Z,100424.89
2018-09-18T07:33:59.721Z,100429.63
2018-09-18T07:36:27.940Z,100429.53
2018-09-18T07:38:56.203Z,100423.63
2018-09-18T07:41:24.860Z,100429.54
2018-09-18T07:43:53.136Z,100433.73
2018-09-18T07:46:22.013Z,100432.87
2018-09-18T07:48:50.135Z,100438.80
2018-09-18T07:51:18.366Z,100440.42
2018-09-18T07:53:46.515Z,100437.14
2018-09-18T07:56:14.771Z,100432.09
2018-09-18T07:58:42.985Z,100439.48
2018-09-18T08:01:11.372Z,100431.39
2018-09-18T08:03:39.701Z,100429.52
2018-09-18T08:06:07.969Z,100421.82
2018-09-18T08:08:36.198Z,100421.27
2018-09-18T08:11:04.469Z,100418.56
2018-09-18T08:13:32.800Z,100414.17
2018-09-18T08:16:00.980Z,100416.48
2018-09-18T08:18:29.154Z,100419.70
2018-09-18T08:20:57.370Z,100419.27
2018-09-18T08:23:25.666Z,100412.48
2018-09-18T08:25:53.876Z,100416.48
2018-09-18T08:28:22.772Z,100417.19
2018-09-18T08:30:50.940Z,100414.58
2018-09-18T08:33:19.133Z,100413.37
2018-09-18T08:35:47.268Z,100425.32
2018-09-18T08:38:15.532Z,100412.22
2018-09-18T08:40:43.750Z,100414.95
2018-09-18T08:43:12.582Z,100406.26
2018-09-18T08:45:40.784Z,100408.39
2018-09-18T08:48:09.118Z,100407.17
2018-09-18T08:50:37.354Z,100405.59
2018-09-18T08:53:05.637Z,100401.91
2018-09-18T08:55:33.823Z,100401.47
2018-09-18T08:58:02.064Z,100400.53
2018-09-18T09:00:30.370Z,100398.12
2018-09-18T09:02:58.575Z,100402.16
2018-09-18T09:05:26.734Z,100403.41
2018-09-18T09:07:55.153Z,100395.45
2018-09-18T09:10:23.369Z,100389.45
2018-09-18T09:12:51.456Z,100390.76
2018-09-18T09:15:19.771Z,100386.89
2018-09-18T09:17:48.021Z,100380.72
2018-09-18T09:20:16.258Z,100387.66
2018-09-18T09:22:51.173Z,100390.27
2018-09-18T09:25:19.509Z,100378.94
2018-09-18T09:27:48.029Z,100383.31
2018-09-18T09:30:16.176Z,100380.59
2018-09-18T09:32:44.325Z,100375.95
2018-09-18T09:35:12.582Z,100374.31
2018-09-18T09:37:40.871Z,100372.41
2018-09-18T09:40:09.097Z,100371.37
2018-09-18T09:42:37.331Z,100365.22
2018-09-18T09:45:05.688Z,100360.19
2018-09-18T09:47:33.769Z,100366.80
2018-09-18T09:50:02.033Z,100360.05
2018-09-18T09:52:30.365Z,100359.34
2018-09-18T09:54:58.593Z,100347.61
2018-09-18T09:57:26.822Z,100355.06
2018-09-18T09:59:54.965Z,100359.54
2018-09-18T10:02:28.560Z,100352.80
2018-09-18T10:04:57.906Z,100344.25
2018-09-18T10:07:26.071Z,100349.72
2018-09-18T10:09:54.273Z,100343.00
2018-09-18T10:12:22.470Z,100346.28
2018-09-18T10:14:50.771Z,100336.61
2018-09-18T10:17:19.617Z,100340.19
2018-09-18T10:19:47.837Z,100334.71
2018-09-18T10:22:16.065Z,100328.59
2018-09-18T10:24:44.324Z,100332.94
2018-09-18T10:27:12.570Z,100322.55
2018-09-18T10:29:40.798Z,100327.28
2018-09-18T10:32:08.947Z,100315.78
2018-09-18T10:34:37.316Z,100318.04
2018-09-18T10:37:05.563Z,100315.56
2018-09-18T10:39:33.834Z,100307.27
2018-09-18T10:42:02.008Z,100306.13
2018-09-18T10:44:30.189Z,100294.95
2018-09-18T10:46:58.321Z,100291.66
2018-09-18T10:49:27.327Z,100291.33
2018-09-18T10:51:55.712Z,100278.66
2018-09-18T10:54:23.936Z,100274.89
2018-09-18T10:56:52.232Z,100274.22
2018-09-18T10:59:20.485Z,100277.13
2018-09-18T11:01:48.794Z,100265.83
2018-09-18T11:04:16.873Z,100272.17
2018-09-18T11:06:45.035Z,100260.87
2018-09-18T11:09:13.259Z,100258.61
2018-09-18T11:11:41.650Z,100259.46
2018-09-18T11:14:11.409Z,100261.23
2018-09-18T11:16:39.633Z,100257.96
2018-09-18T11:19:08.521Z,100251.59
2018-09-18T11:21:36.954Z,100245.37
2018-09-18T11:24:05.510Z,100252.30
2018-09-18T11:26:33.763Z,100248.59
2018-09-18T11:29:02.734Z,100251.38
2018-09-18T11:31:30.995Z,100248.34
2018-09-18T11:33:59.199Z,100244.97
2018-09-18T11:36:28.093Z,100241.72
2018-09-18T11:38:56.968Z,100235.17
2018-09-18T11:41:25.515Z,100225.58
2018-09-18T11:43:53.975Z,100228.94
2018-09-18T11:46:22.181Z,100225.62
2018-09-18T11:48:50.419Z,100219.98
2018-09-18T11:51:18.954Z,100223.95
2018-09-18T11:53:47.111Z,100220.77
2018-09-18T11:56:15.343Z,100220.79
2018-09-18T11:58:43.581Z,100211.08
2018-09-18T12:01:11.921Z,100216.81
2018-09-18T12:03:40.051Z,100213.45
2018-09-18T12:06:08.292Z,100203.35
2018-09-18T12:08:43.247Z,100201.80
2018-09-18T12:11:11.561Z,100213.61
2018-09-18T12:13:39.753Z,100189.28
2018-09-18T12:16:08.119Z,100201.12
2018-09-18T12:18:36.261Z,100196.91
2018-09-18T12:21:05.082Z,100193.95
2018-09-18T12:23:33.199Z,100196.80
2018-09-18T12:26:01.397Z,100183.33
2018-09-18T12:28:29.569Z,100185.19
2018-09-18T12:30:57.726Z,100186.38
2018-09-18T12:33:25.936Z,100182.66
2018-09-18T12:35:54.112Z,100177.36
2018-09-18T12:38:22.310Z,100175.34
2018-09-18T12:40:50.516Z,100173.02
2018-09-18T12:43:18.780Z,100170.64
2018-09-18T12:45:47.002Z,100156.16
2018-09-18T12:48:16.206Z,100163.11
2018-09-18T12:50:44.396Z,100161.52
2018-09-18T12:53:12.510Z,100151.17
2018-09-18T12:55:40.702Z,100160.69
2018-09-18T12:58:08.894Z,100148.58
2018-09-18T13:00:37.008Z,100141.16
2018-09-18T13:03:05.200Z,100137.51
2018-09-18T13:05:33.452Z,100131.74
2018-09-18T13:08:01.746Z,100139.27
2018-09-18T13:10:29.918Z,100138.81
2018-09-18T13:12:58.812Z,100138.39
2018-09-18T13:15:27.043Z,100118.59
2018-09-18T13:17:55.298Z,100119.65
2018-09-18T13:20:23.499Z,100124.21
2018-09-18T13:22:52.207Z,100123.28
2018-09-18T13:25:20.457Z,100116.45
2018-09-18T13:27:48.755Z,100124.66
2018-09-18T13:30:17.104Z,100122.30
2018-09-18T13:32:45.442Z,100113.13
2018-09-18T13:35:13.543Z,100113.41
2018-09-18T13:37:41.743Z,100113.41
2018-09-18T13:40:10.033Z,100106.91
2018-09-18T13:42:38.187Z,100110.81
2018-09-18T13:45:06.453Z,100107.63
2018-09-18T13:47:34.583Z,100096.76
2018-09-18T13:50:02.875Z,100098.45
2018-09-18T13:52:31.072Z,100085.75
2018-09-18T13:54:59.273Z,100090.50
2018-09-18T13:57:27.654Z,100084.59
2018-09-18T13:59:55.914Z,100087.38
2018-09-18T14:02:24.099Z,100083.56
2018-09-18T14:04:52.365Z,100089.94
2018-09-18T14:07:20.542Z,100082.39
2018-09-18T14:09:48.862Z,100077.47
2018-09-18T14:12:17.441Z,100085.03
2018-09-18T14:14:45.710Z,100093.84
2018-09-18T14:17:13.892Z,100082.12
2018-09-18T14:19:42.301Z,100076.55
2018-09-18T14:22:10.786Z,100077.83
2018-09-18T14:24:39.653Z,100078.64
2018-09-18T14:27:07.864Z,100079.66
2018-09-18T14:29:36.028Z,100076.50
2018-09-18T14:32:04.249Z,100080.54
2018-09-18T14:34:32.410Z,100069.66
2018-09-18T14:37:00.591Z,100074.43
2018-09-18T14:39:28.780Z,100062.47
2018-09-18T14:41:56.927Z,100069.93
2018-09-18T14:44:25.085Z,100065.30
2018-09-18T14:46:53.237Z,100064.48
2018-09-18T14:49:21.501Z,100064.54
2018-09-18T14:51:50.012Z,100058.43
2018-09-18T14:54:18.221Z,100069.05
2018-09-18T14:56:46.417Z,100061.97
2018-09-18T14:59:14.645Z,100067.47
2018-09-18T15:01:43.033Z,100064.84
2018-09-18T15:04:11.235Z,100075.45
2018-09-18T15:06:39.439Z,100066.75
2018-09-18T15:09:09.278Z,100061.53
2018-09-18T15:11:37.482Z,100063.67
2018-09-18T15:14:05.868Z,100068.99
2018-09-18T15:16:34.381Z,100063.09
2018-09-18T15:19:02.586Z,100066.30
2018-09-18T15:21:30.848Z,100068.54
2018-09-18T15:23:58.932Z,100066.85
2018-09-18T15:26:27.074Z,100069.78
2018-09-18T15:28:55.252Z,100079.66
2018-09-18T15:31:23.521Z,100075.48
2018-09-18T15:33:51.834Z,100078.59
2018-09-18T15:36:20.076Z,100069.12
2018-09-18T15:38:48.243Z,100073.18
2018-09-18T15:41:16.473Z,100065.60
2018-09-18T15:43:44.695Z,100062.27
2018-09-18T15:46:12.945Z,100067.16
2018-09-18T15:48:41.126Z,100064.65
2018-09-18T15:51:09.452Z,100061.91
2018-09-18T15:53:37.596Z,100068.70
2018-09-18T15:56:05.873Z,100061.69
2018-09-18T15:58:34.009Z,100063.36
2018-09-18T16:01:02.133Z,100062.52
2018-09-18T16:03:30.340Z,100061.19
2018-09-18T16:05:58.637Z,100066.86
2018-09-18T16:08:27.162Z,100061.68
2018-09-18T16:10:55.423Z,100060.56
2018-09-18T16:13:23.767Z,100062.65
2018-09-18T16:15:51.997Z,100064.34
2018-09-18T16:18:20.498Z,100062.00
2018-09-18T16:20:48.917Z,100058.55
2018-09-18T16:23:17.133Z,100057.33
2018-09-18T16:25:46.071Z,100059.72
2018-09-18T16:28:14.258Z,100059.70
2018-09-18T16:30:43.154Z,100063.32
2018-09-18T16:33:11.380Z,100057.67
2018-09-18T16:35:39.649Z,100067.00
2018-09-18T16:38:08.292Z,100062.62
2018-09-18T16:40:36.750Z,100059.92
2018-09-18T16:43:04.945Z,100066.20
2018-09-18T16:45:33.201Z,100073.21
2018-09-18T16:48:01.506Z,100065.81
2018-09-18T16:50:29.712Z,100070.56
2018-09-18T16:52:58.561Z,100074.19
2018-09-18T16:55:26.742Z,100068.37
2018-09-18T16:57:55.048Z,100068.95
2018-09-18T17:00:23.388Z,100071.94
2018-09-18T17:02:51.580Z,100076.38
2018-09-18T17:05:19.950Z,100077.52
2018-09-18T17:07:48.428Z,100076.25
2018-09-18T17:10:16.608Z,100076.43
2018-09-18T17:12:44.826Z,100067.71
2018-09-18T17:15:13.011Z,100073.17
2018-09-18T17:17:41.148Z,100078.30
2018-09-18T17:20:09.596Z,100078.66
2018-09-18T17:22:37.892Z,100075.78
2018-09-18T17:25:06.144Z,100077.73
2018-09-18T17:27:34.382Z,100086.13
2018-09-18T17:30:02.695Z,100079.78
2018-09-18T17:32:30.849Z,100084.87
2018-09-18T17:34:59.126Z,100092.31
2018-09-18T17:37:27.446Z,100093.13
2018-09-18T17:39:55.713Z,100095.31
2018-09-18T17:42:23.846Z,100092.66
2018-09-18T17:44:52.082Z,100088.06
2018-09-18T17:47:20.287Z,100091.76
2018-09-18T17:49:48.461Z,100099.59
2018-09-18T17:52:16.577Z,100107.73
2018-09-18T17:54:44.709Z,100110.33
2018-09-18T17:57:12.887Z,100103.98
2018-09-18T17:59:41.228Z,100112.03
2018-09-18T18:02:09.706Z,100110.80
2018-09-18T18:04:38.208Z,100113.29
2018-09-18T18:07:06.650Z,100114.16
2018-09-18T18:09:34.730Z,100111.35
2018-09-18T18:12:02.999Z,100114.16
2018-09-18T18:14:31.261Z,100115.92
2018-09-18T18:16:59.445Z,100112.93
2018-09-18T18:19:27.644Z,100120.22
2018-09-18T18:21:55.844Z,100118.00
2018-09-18T18:24:24.216Z,100116.86
2018-09-18T18:26:52.490Z,100120.81
2018-09-18T18:29:20.681Z,100121.52
2018-09-18T18:31:49.004Z,100120.98
2018-09-18T18:34:17.233Z,100131.02
2018-09-18T18:36:45.479Z,100134.16
2018-09-18T18:39:13.746Z,100131.17
2018-09-18T18:41:41.986Z,100124.97
2018-09-18T18:44:10.088Z,100128.28
2018-09-18T18:46:38.187Z,100137.27
2018-09-18T18:49:06.553Z,100134.51
2018-09-18T18:51:34.737Z,100138.77
2018-09-18T18:54:03.062Z,100148.57
2018-09-18T18:56:31.261Z,100152.20
2018-09-18T18:58:59.599Z,100151.77
2018-09-18T19:01:27.731Z,100160.39
2018-09-18T19:03:55.921Z,100163.15
2018-09-18T19:06:24.269Z,100162.01
2018-09-18T19:08:52.418Z,100165.03
2018-09-18T19:11:20.719Z,100161.81
2018-09-18T19:13:48.945Z,100166.29
2018-09-18T19:16:17.226Z,100166.60
2018-09-18T19:18:45.463Z,100165.41
2018-09-18T19:21:13.669Z,100164.42
2018-09-18T19:23:41.894Z,100168.19
2018-09-18T19:26:10.807Z,100172.05
2018-09-18T19:28:39.324Z,100167.68
2018-09-18T19:31:08.804Z,100170.55
2018-09-18T19:33:37.141Z,100175.31
2018-09-18T19:36:05.390Z,100175.55
2018-09-18T19:38:33.612Z,100174.75
2018-09-18T19:41:01.758Z,100172.89
2018-09-18T19:43:30.028Z,100168.95
2018-09-18T19:45:58.177Z,100170.20
2018-09-18T19:48:26.402Z,100176.53
2018-09-18T19:50:54.566Z,100177.73
2018-09-18T19:53:22.684Z,100176.47
2018-09-18T19:55:50.844Z,100185.91
2018-09-18T19:58:19.016Z,100181.15
2018-09-18T20:00:48.020Z,100188.41
2018-09-18T20:03:16.165Z,100189.68
2018-09-18T20:05:44.368Z,100189.28
2018-09-18T20:08:12.495Z,100189.09
2018-09-18T20:10:40.741Z,100186.72
2018-09-18T20:13:08.979Z,100190.02
2018-09-18T20:15:37.279Z,100190.56
2018-09-18T20:18:05.490Z,100192.87
2018-09-18T20:20:33.677Z,100200.27
2018-09-18T20:23:01.837Z,100192.36
2018-09-18T20:25:30.190Z,100197.25
2018-09-18T20:27:58.337Z,100196.45
2018-09-18T20:30:26.554Z,100202.52
2018-09-18T20:32:54.770Z,100203.58
2018-09-18T20:35:23.189Z,100205.27
2018-09-18T20:37:51.388Z,100202.11
2018-09-18T20:40:19.571Z,100217.16
2018-09-18T20:42:47.802Z,100218.50
2018-09-18T20:45:16.009Z,100218.50
2018-09-18T20:47:44.251Z,100216.78
2018-09-18T20:50:12.494Z,100218.19
2018-09-18T20:52:40.836Z,100217.39
2018-09-18T20:55:10.577Z,100220.91
2018-09-18T20:57:40.181Z,100214.58
2018-09-18T21:00:09.798Z,100217.01
2018-09-18T21:02:40.117Z,100218.58
2018-09-18T21:05:08.986Z,100216.59
2018-09-18T21:07:37.612Z,100220.66
2018-09-18T21:10:06.055Z,100218.52
2018-09-18T21:12:34.404Z,100219.81
2018-09-18T21:15:02.704Z,100218.20
2018-09-18T21:17:31.221Z,100217.96
2018-09-18T21:19:59.420Z,100222.45
2018-09-18T21:22:27.853Z,100228.94
2018-09-18T21:25:12.074Z,100228.05
2018-09-18T21:27:40.879Z,100231.53
2018-09-18T21:30:09.099Z,100223.09
2018-09-18T21:32:37.818Z,100223.03
2018-09-18T21:35:06.311Z,100228.38
2018-09-18T21:37:34.674Z,100226.17
2018-09-18T21:40:02.868Z,100223.56
2018-09-18T21:42:31.261Z,100224.11
2018-09-18T21:44:59.810Z,100227.23
2018-09-18T21:47:28.173Z,100227.06
2018-09-18T21:49:56.410Z,100230.40
2018-09-18T21:52:25.199Z,100231.61
2018-09-18T21:55:00.185Z,100231.96
2018-09-18T21:57:29.493Z,100224.92
2018-09-18T21:59:57.732Z,100228.64
2018-09-18T22:02:26.012Z,100228.44
2018-09-18T22:04:54.238Z,100235.38
2018-09-18T22:07:23.324Z,100235.68
2018-09-18T22:09:51.635Z,100230.57
2018-09-18T22:12:20.027Z,100236.89
2018-09-18T22:14:48.248Z,100243.01
2018-09-18T22:17:16.555Z,100236.50
2018-09-18T22:19:44.780Z,100240.76
2018-09-18T22:22:13.209Z,100242.38
2018-09-18T22:24:41.311Z,100252.91
2018-09-18T22:27:09.683Z,100246.70
2018-09-18T22:29:37.816Z,100248.91
2018-09-18T22:32:06.427Z,100252.28
2018-09-18T22:34:34.729Z,100255.55
2018-09-18T22:37:03.284Z,100250.03
2018-09-18T22:39:31.457Z,100248.12
2018-09-18T22:42:00.545Z,100258.75
2018-09-18T22:44:28.698Z,100256.59
2018-09-18T22:46:57.130Z,100254.93
2018-09-18T22:49:25.285Z,100256.94
2018-09-18T22:51:53.597Z,100251.79
2018-09-18T22:54:21.945Z,100256.19
2018-09-18T22:56:50.376Z,100253.70
2018-09-18T22:59:19.100Z,100250.47
2018-09-18T23:01:47.407Z,100251.64
2018-09-18T23:04:15.577Z,100249.48
2018-09-18T23:06:43.937Z,100251.67
2018-09-18T23:09:12.135Z,100250.55
2018-09-18T23:11:40.472Z,100257.98
2018-09-18T23:14:08.995Z,100245.16
2018-09-18T23:16:37.274Z,100248.44
2018-09-18T23:19:05.600Z,100247.95
2018-09-18T23:21:33.927Z,100248.23
2018-09-18T23:24:02.437Z,100252.10
2018-09-18T23:26:30.672Z,100252.14
2018-09-18T23:28:59.253Z,100241.97
2018-09-18T23:31:28.159Z,100249.40
2018-09-18T23:33:56.382Z,100255.13
2018-09-18T23:36:24.590Z,100252.88
2018-09-18T23:38:52.948Z,100261.06
2018-09-18T23:41:21.224Z,100255.38
2018-09-18T23:43:49.542Z,100265.83
2018-09-18T23:46:17.932Z,100264.25
2018-09-18T23:48:46.238Z,100264.50
2018-09-18T23:51:14.434Z,100261.98
2018-09-18T23:53:42.723Z,100268.03
2018-09-18T23:56:10.918Z,100262.48
2018-09-18T23:58:39.348Z,100271.28
